createdAt,value
2018-03-18T00:00:52.269Z,57.13
2018-03-18T00:03:20.033Z,52.20
2018-03-18T00:05:47.875Z,41.17
2018-03-18T00:08:15.450Z,47.47
2018-03-18T00:10:42.996Z,48.58
2018-03-18T00:13:11.498Z,61.53
2018-03-18T00:15:39.118Z,44.95
2018-03-18T00:18:06.801Z,49.38
2018-03-18T00:20:34.364Z,41.25
2018-03-18T00:23:01.899Z,49.90
2018-03-18T00:25:29.506Z,49.92
2018-03-18T00:27:57.031Z,44.42
2018-03-18T00:30:24.581Z,51.47
2018-03-18T00:32:52.144Z,49.40
2018-03-18T00:35:19.675Z,52.13
2018-03-18T00:37:47.468Z,47.58
2018-03-18T00:40:15.048Z,44.67
2018-03-18T00:42:42.909Z,44.45
2018-03-18T00:45:10.429Z,48.30
2018-03-18T00:47:37.964Z,46.70
2018-03-18T00:50:05.509Z,46.13
2018-03-18T00:52:33.027Z,49.63
2018-03-18T00:55:00.914Z,47.08
2018-03-18T00:57:28.432Z,44.70
2018-03-18T00:59:55.956Z,47.05
2018-03-18T01:02:23.506Z,45.95
2018-03-18T01:04:51.201Z,50.95
2018-03-18T01:07:18.759Z,44.42
2018-03-18T01:09:46.279Z,53.45
2018-03-18T01:12:13.794Z,47.03
2018-03-18T01:14:41.341Z,44.15
2018-03-18T01:17:09.782Z,51.42
2018-03-18T01:19:38.055Z,45.97
2018-03-18T01:22:05.572Z,29.48
2018-03-18T01:24:33.100Z,52.42
2018-03-18T01:27:00.656Z,42.60
2018-03-18T01:29:28.178Z,40.33
2018-03-18T01:31:56.133Z,49.63
2018-03-18T01:34:23.641Z,35.58
2018-03-18T01:36:51.166Z,47.53
2018-03-18T01:39:18.732Z,52.28
2018-03-18T01:41:46.253Z,45.88
2018-03-18T01:44:13.823Z,48.80
2018-03-18T01:46:41.342Z,45.63
2018-03-18T01:49:08.876Z,46.35
2018-03-18T01:51:36.420Z,54.05
2018-03-18T01:54:03.934Z,54.60
2018-03-18T01:56:31.489Z,53.25
2018-03-18T01:58:59.010Z,51.78
2018-03-18T02:01:26.530Z,40.40
2018-03-18T02:03:54.073Z,47.97
2018-03-18T02:06:21.590Z,43.92
2018-03-18T02:08:49.139Z,47.10
2018-03-18T02:11:16.653Z,45.97
2018-03-18T02:13:44.169Z,41.88
2018-03-18T02:16:11.706Z,43.20
2018-03-18T02:18:39.218Z,43.45
2018-03-18T02:21:06.914Z,48.67
2018-03-18T02:23:34.430Z,48.83
2018-03-18T02:26:01.941Z,45.80
2018-03-18T02:28:29.477Z,51.40
2018-03-18T02:30:57.002Z,51.33
2018-03-18T02:33:24.723Z,48.08
2018-03-18T02:35:52.495Z,46.33
2018-03-18T02:38:20.009Z,42.28
2018-03-18T02:40:47.567Z,41.25
2018-03-18T02:43:15.086Z,43.67
2018-03-18T02:45:42.717Z,43.42
2018-03-18T02:48:10.231Z,37.72
2018-03-18T02:50:37.742Z,43.35
2018-03-18T02:53:05.292Z,50.60
2018-03-18T02:55:32.809Z,51.05
2018-03-18T02:58:01.421Z,43.97
2018-03-18T03:00:28.933Z,44.85
2018-03-18T03:02:56.449Z,43.40
2018-03-18T03:05:23.990Z,44.90
2018-03-18T03:07:51.515Z,38.88
2018-03-18T03:10:19.324Z,41.95
2018-03-18T03:12:46.832Z,45.70
2018-03-18T03:15:14.429Z,46.15
2018-03-18T03:17:41.968Z,54.88
2018-03-18T03:20:09.481Z,50.80
2018-03-18T03:22:37.421Z,50.75
2018-03-18T03:25:04.934Z,47.62
2018-03-18T03:27:32.456Z,44.15
2018-03-18T03:29:59.997Z,47.00
2018-03-18T03:32:27.509Z,45.75
2018-03-18T03:34:55.057Z,52.80
2018-03-18T03:37:22.578Z,51.95
2018-03-18T03:39:50.093Z,46.08
2018-03-18T03:42:17.630Z,49.83
2018-03-18T03:44:45.141Z,42.62
2018-03-18T03:47:12.813Z,37.90
2018-03-18T03:49:40.322Z,45.75
2018-03-18T03:52:07.851Z,49.10
2018-03-18T03:54:35.395Z,40.75
2018-03-18T03:57:02.912Z,41.45
2018-03-18T03:59:30.471Z,39.53
2018-03-18T04:01:57.981Z,31.35
2018-03-18T04:04:25.543Z,35.38
2018-03-18T04:06:53.068Z,41.88
2018-03-18T04:09:20.590Z,38.20
2018-03-18T04:11:48.141Z,48.60
2018-03-18T04:14:15.662Z,36.60
2018-03-18T04:16:43.178Z,50.12
2018-03-18T04:19:11.627Z,48.65
2018-03-18T04:21:39.142Z,25.92
2018-03-18T04:24:06.836Z,43.92
2018-03-18T04:26:34.366Z,35.30
2018-03-18T04:29:01.887Z,35.05
2018-03-18T04:31:29.433Z,31.48
2018-03-18T04:33:56.990Z,36.58
2018-03-18T04:36:24.530Z,48.20
2018-03-18T04:38:52.046Z,32.75
2018-03-18T04:41:19.580Z,35.58
2018-03-18T04:43:47.129Z,41.92
2018-03-18T04:46:14.649Z,40.25
2018-03-18T04:48:42.413Z,31.73
2018-03-18T04:51:09.937Z,31.02
2018-03-18T04:53:37.458Z,34.65
2018-03-18T04:56:04.998Z,32.65
2018-03-18T04:58:33.490Z,42.62
2018-03-18T05:01:01.534Z,30.33
2018-03-18T05:03:29.055Z,44.05
2018-03-18T05:05:56.578Z,40.60
2018-03-18T05:08:24.647Z,27.13
2018-03-18T05:10:52.171Z,42.60
2018-03-18T05:13:19.942Z,40.65
2018-03-18T05:15:47.474Z,34.35
2018-03-18T05:18:14.986Z,38.03
2018-03-18T05:20:42.529Z,30.80
2018-03-18T05:23:10.054Z,35.80
2018-03-18T05:25:37.619Z,36.97
2018-03-18T05:28:05.139Z,34.85
2018-03-18T05:30:32.653Z,44.70
2018-03-18T05:33:00.215Z,36.28
2018-03-18T05:35:27.729Z,13.20
2018-03-18T05:37:55.387Z,36.00
2018-03-18T05:40:22.910Z,40.15
2018-03-18T05:42:50.450Z,46.00
2018-03-18T05:45:17.986Z,35.30
2018-03-18T05:47:45.505Z,32.38
2018-03-18T05:50:13.053Z,37.45
2018-03-18T05:52:40.569Z,41.10
2018-03-18T05:55:08.085Z,33.42
2018-03-18T05:57:35.631Z,38.60
2018-03-18T06:00:03.142Z,53.65
2018-03-18T06:02:30.689Z,30.25
2018-03-18T06:04:58.200Z,32.40
2018-03-18T06:07:25.715Z,33.15
2018-03-18T06:09:53.259Z,29.95
2018-03-18T06:12:20.778Z,21.50
2018-03-18T06:14:48.514Z,27.80
2018-03-18T06:17:16.026Z,24.95
2018-03-18T06:19:43.540Z,33.58
2018-03-18T06:22:11.081Z,32.78
2018-03-18T06:24:38.629Z,35.50
2018-03-18T06:27:06.181Z,36.45
2018-03-18T06:29:33.716Z,26.12
2018-03-18T06:32:01.230Z,33.25
2018-03-18T06:34:28.773Z,34.08
2018-03-18T06:36:56.286Z,28.90
2018-03-18T06:39:24.012Z,17.67
2018-03-18T06:41:51.527Z,30.62
2018-03-18T06:44:19.059Z,34.83
2018-03-18T06:46:46.606Z,33.30
2018-03-18T06:49:14.121Z,28.38
2018-03-18T06:51:42.112Z,28.70
2018-03-18T06:54:09.741Z,29.27
2018-03-18T06:56:37.268Z,31.37
2018-03-18T06:59:04.813Z,34.13
2018-03-18T07:01:32.798Z,25.60
2018-03-18T07:04:00.556Z,21.50
2018-03-18T07:06:28.078Z,25.50
2018-03-18T07:08:55.662Z,28.33
2018-03-18T07:11:23.222Z,29.45
2018-03-18T07:13:50.750Z,24.25
2018-03-18T07:16:18.415Z,26.42
2018-03-18T07:18:45.929Z,28.77
2018-03-18T07:21:13.445Z,30.20
2018-03-18T07:23:41.006Z,26.30
2018-03-18T07:26:08.672Z,29.02
2018-03-18T07:28:36.544Z,36.70
2018-03-18T07:31:04.074Z,37.92
2018-03-18T07:33:31.762Z,32.33
2018-03-18T07:35:59.312Z,32.80
2018-03-18T07:38:26.838Z,26.58
2018-03-18T07:40:54.626Z,24.55
2018-03-18T07:43:22.171Z,33.50
2018-03-18T07:45:49.699Z,39.50
2018-03-18T07:48:17.307Z,33.95
2018-03-18T07:50:44.951Z,42.50
2018-03-18T07:53:12.591Z,41.75
2018-03-18T07:55:40.102Z,39.60
2018-03-18T07:58:07.621Z,37.25
2018-03-18T08:00:35.166Z,31.98
2018-03-18T08:03:02.716Z,26.23
2018-03-18T08:05:30.646Z,32.55
2018-03-18T08:07:58.185Z,25.00
2018-03-18T08:10:25.765Z,33.00
2018-03-18T08:12:53.427Z,37.38
2018-03-18T08:15:20.964Z,19.58
2018-03-18T08:17:48.519Z,33.03
2018-03-18T08:20:16.108Z,28.62
2018-03-18T08:22:43.662Z,26.60
2018-03-18T08:25:11.533Z,33.90
2018-03-18T08:27:39.087Z,28.10
2018-03-18T08:30:06.915Z,32.67
2018-03-18T08:32:34.620Z,37.78
2018-03-18T08:35:02.285Z,31.70
2018-03-18T08:37:30.787Z,31.95
2018-03-18T08:39:58.331Z,37.78
2018-03-18T08:42:29.116Z,25.48
2018-03-18T08:44:56.677Z,33.03
2018-03-18T08:47:24.483Z,37.42
2018-03-18T08:49:52.251Z,32.95
2018-03-18T08:52:19.863Z,32.25
2018-03-18T08:54:47.759Z,24.85
2018-03-18T08:57:15.280Z,30.40
2018-03-18T08:59:43.099Z,26.23
2018-03-18T09:02:10.928Z,31.23
2018-03-18T09:04:39.035Z,28.35
2018-03-18T09:07:06.913Z,31.27
2018-03-18T09:09:34.732Z,25.70
2018-03-18T09:12:02.533Z,29.90
2018-03-18T09:14:30.398Z,24.60
2018-03-18T09:16:58.572Z,33.83
2018-03-18T09:19:26.642Z,35.05
2018-03-18T09:21:54.919Z,29.60
2018-03-18T09:24:22.912Z,30.92
2018-03-18T09:26:50.960Z,28.62
2018-03-18T09:29:18.824Z,33.90
2018-03-18T09:31:47.716Z,30.77
2018-03-18T09:34:16.105Z,28.12
2018-03-18T09:36:44.574Z,29.35
2018-03-18T09:39:12.524Z,27.80
2018-03-18T09:41:41.292Z,27.75
2018-03-18T09:44:10.037Z,28.60
2018-03-18T09:46:37.848Z,25.55
2018-03-18T09:49:05.750Z,25.58
2018-03-18T09:51:33.720Z,26.87
2018-03-18T09:54:01.586Z,43.28
2018-03-18T09:56:29.704Z,28.15
2018-03-18T09:58:58.034Z,34.33
2018-03-18T10:01:26.107Z,27.20
2018-03-18T10:03:54.041Z,34.88
2018-03-18T10:06:21.910Z,25.52
2018-03-18T10:08:50.013Z,27.67
2018-03-18T10:11:17.982Z,30.42
2018-03-18T10:13:45.851Z,21.65
2018-03-18T10:16:13.772Z,24.83
2018-03-18T10:18:42.093Z,25.25
2018-03-18T10:21:11.235Z,28.70
2018-03-18T10:23:39.123Z,22.75
2018-03-18T10:26:07.536Z,26.65
2018-03-18T10:28:35.508Z,27.52
2018-03-18T10:31:03.478Z,28.75
2018-03-18T10:33:31.714Z,28.45
2018-03-18T10:35:59.616Z,30.80
2018-03-18T10:38:27.587Z,26.65
2018-03-18T10:40:55.657Z,30.25
2018-03-18T10:43:23.730Z,26.52
2018-03-18T10:45:52.003Z,25.95
2018-03-18T10:48:19.869Z,27.95
2018-03-18T10:50:47.805Z,25.98
2018-03-18T10:53:16.276Z,28.15
2018-03-18T10:55:44.189Z,25.12
2018-03-18T10:58:12.257Z,26.65
2018-03-18T11:00:45.081Z,30.17
2018-03-18T11:03:13.110Z,25.42
2018-03-18T11:05:41.181Z,28.08
2018-03-18T11:08:09.645Z,28.90
2018-03-18T11:10:37.713Z,29.40
2018-03-18T11:13:05.808Z,28.67
2018-03-18T11:15:33.746Z,23.48
2018-03-18T11:18:02.321Z,30.33
2018-03-18T11:20:30.329Z,31.60
2018-03-18T11:22:58.296Z,30.27
2018-03-18T11:25:26.564Z,27.70
2018-03-18T11:27:54.763Z,32.45
2018-03-18T11:30:22.546Z,30.42
2018-03-18T11:32:50.477Z,29.63
2018-03-18T11:35:18.446Z,29.95
2018-03-18T11:37:46.310Z,24.67
2018-03-18T11:40:14.690Z,29.70
2018-03-18T11:42:42.556Z,22.27
2018-03-18T11:45:10.424Z,27.92
2018-03-18T11:47:38.495Z,33.00
2018-03-18T11:50:06.362Z,26.23
2018-03-18T11:52:34.434Z,27.00
2018-03-18T11:55:02.299Z,36.00
2018-03-18T11:57:30.129Z,28.55
2018-03-18T11:59:58.032Z,27.00
2018-03-18T12:02:25.898Z,33.25
2018-03-18T12:04:54.028Z,27.27
2018-03-18T12:07:22.349Z,18.95
2018-03-18T12:09:50.213Z,25.62
2018-03-18T12:12:18.182Z,31.83
2018-03-18T12:14:46.049Z,26.55
2018-03-18T12:17:14.023Z,34.95
2018-03-18T12:19:41.883Z,29.58
2018-03-18T12:22:09.751Z,29.85
2018-03-18T12:24:37.620Z,31.52
2018-03-18T12:27:05.449Z,34.55
2018-03-18T12:29:33.658Z,34.03
2018-03-18T12:32:01.523Z,34.03
2018-03-18T12:34:29.391Z,33.00
2018-03-18T12:36:57.667Z,32.63
2018-03-18T12:39:26.410Z,27.52
2018-03-18T12:41:54.701Z,28.15
2018-03-18T12:44:23.211Z,22.60
2018-03-18T12:46:51.081Z,30.08
2018-03-18T12:49:19.354Z,31.98
2018-03-18T12:51:47.220Z,29.87
2018-03-18T12:54:15.108Z,26.95
2018-03-18T12:56:42.954Z,27.80
2018-03-18T12:59:10.820Z,28.90
2018-03-18T13:01:38.788Z,35.00
2018-03-18T13:04:06.551Z,25.65
2018-03-18T13:06:34.728Z,39.90
2018-03-18T13:09:02.559Z,33.22
2018-03-18T13:11:30.325Z,38.50
2018-03-18T13:13:58.222Z,26.92
2018-03-18T13:16:26.059Z,26.77
2018-03-18T13:18:54.277Z,34.42
2018-03-18T13:21:22.027Z,27.52
2018-03-18T13:23:49.791Z,31.52
2018-03-18T13:26:17.629Z,28.87
2018-03-18T13:28:45.527Z,31.65
2018-03-18T13:31:13.707Z,34.53
2018-03-18T13:33:41.667Z,35.28
2018-03-18T13:36:09.584Z,32.92
2018-03-18T13:38:37.517Z,31.75
2018-03-18T13:41:07.109Z,30.00
2018-03-18T13:43:35.077Z,43.35
2018-03-18T13:46:02.842Z,27.30
2018-03-18T13:48:30.674Z,20.60
2018-03-18T13:50:58.574Z,27.60
2018-03-18T13:53:26.440Z,25.50
2018-03-18T13:55:54.411Z,28.30
2018-03-18T13:58:22.240Z,18.17
2018-03-18T14:00:50.107Z,32.22
2018-03-18T14:03:17.974Z,27.80
2018-03-18T14:05:46.140Z,26.77
2018-03-18T14:08:14.006Z,27.98
2018-03-18T14:10:41.774Z,30.17
2018-03-18T14:13:09.681Z,32.75
2018-03-18T14:15:37.547Z,37.15
2018-03-18T14:18:05.517Z,29.17
2018-03-18T14:20:33.764Z,31.77
2018-03-18T14:23:01.631Z,39.35
2018-03-18T14:25:29.711Z,31.67
2018-03-18T14:27:57.799Z,34.80
2018-03-18T14:30:26.179Z,39.03
2018-03-18T14:32:55.070Z,32.45
2018-03-18T14:35:22.937Z,32.20
2018-03-18T14:37:51.320Z,30.90
2018-03-18T14:40:19.247Z,38.08
2018-03-18T14:42:47.112Z,26.42
2018-03-18T14:45:15.219Z,26.12
2018-03-18T14:47:43.087Z,33.17
2018-03-18T14:50:11.056Z,27.00
2018-03-18T14:52:39.024Z,27.00
2018-03-18T14:55:06.992Z,27.58
2018-03-18T14:57:35.107Z,26.02
2018-03-18T15:00:03.550Z,28.92
2018-03-18T15:02:32.436Z,30.48
2018-03-18T15:05:00.404Z,28.90
2018-03-18T15:07:28.271Z,25.80
2018-03-18T15:09:56.601Z,28.50
2018-03-18T15:12:24.621Z,31.75
2018-03-18T15:14:52.998Z,38.38
2018-03-18T15:17:21.445Z,33.08
2018-03-18T15:19:50.267Z,34.53
2018-03-18T15:22:18.644Z,37.08
2018-03-18T15:24:46.510Z,29.73
2018-03-18T15:27:15.194Z,19.73
2018-03-18T15:29:43.128Z,40.40
2018-03-18T15:32:11.133Z,28.40
2018-03-18T15:34:39.058Z,28.65
2018-03-18T15:37:06.969Z,22.40
2018-03-18T15:39:35.244Z,22.85
2018-03-18T15:42:03.213Z,31.62
2018-03-18T15:44:31.080Z,27.92
2018-03-18T15:46:59.355Z,30.33
2018-03-18T15:49:27.324Z,18.27
2018-03-18T15:51:55.703Z,29.10
2018-03-18T15:54:23.673Z,28.50
2018-03-18T15:56:51.540Z,30.65
2018-03-18T15:59:19.815Z,29.98
2018-03-18T16:01:47.637Z,33.63
2018-03-18T16:04:15.651Z,36.22
2018-03-18T16:06:43.721Z,35.53
2018-03-18T16:09:11.589Z,24.73
2018-03-18T16:11:39.763Z,28.58
2018-03-18T16:14:07.675Z,33.70
2018-03-18T16:16:35.596Z,32.17
2018-03-18T16:19:03.464Z,26.65
2018-03-18T16:21:31.333Z,31.48
2018-03-18T16:23:59.504Z,27.92
2018-03-18T16:26:27.368Z,29.60
2018-03-18T16:28:55.549Z,29.30
2018-03-18T16:31:23.512Z,27.98
2018-03-18T16:33:51.378Z,27.65
2018-03-18T16:36:20.478Z,27.30
2018-03-18T16:38:48.353Z,29.50
2018-03-18T16:41:16.212Z,34.30
2018-03-18T16:43:44.178Z,32.25
2018-03-18T16:46:12.144Z,35.65
2018-03-18T16:48:40.484Z,38.95
2018-03-18T16:51:08.344Z,30.65
2018-03-18T16:53:36.736Z,38.47
2018-03-18T16:56:05.042Z,37.00
2018-03-18T16:58:32.937Z,31.27
2018-03-18T17:01:01.186Z,36.15
2018-03-18T17:03:29.691Z,35.00
2018-03-18T17:05:57.840Z,35.55
2018-03-18T17:08:25.812Z,22.30
2018-03-18T17:10:53.675Z,28.05
2018-03-18T17:13:21.645Z,32.50
2018-03-18T17:15:49.512Z,29.98
2018-03-18T17:18:17.552Z,37.20
2018-03-18T17:20:45.551Z,27.98
2018-03-18T17:23:13.484Z,35.97
2018-03-18T17:25:42.410Z,40.28
2018-03-18T17:28:10.241Z,33.42
2018-03-18T17:30:38.932Z,35.60
2018-03-18T17:33:07.543Z,28.98
2018-03-18T17:35:35.466Z,32.38
2018-03-18T17:38:03.486Z,33.05
2018-03-18T17:40:31.560Z,29.00
2018-03-18T17:43:00.840Z,30.92
2018-03-18T17:45:40.702Z,33.40
2018-03-18T17:48:20.347Z,33.40
2018-03-18T17:51:00.023Z,39.78
2018-03-18T17:53:39.804Z,36.80
2018-03-18T17:59:09.666Z,33.60
2018-03-18T18:01:38.249Z,23.35
2018-03-18T18:04:06.510Z,31.90
2018-03-18T18:06:34.392Z,31.27
2018-03-18T18:09:02.873Z,31.50
2018-03-18T18:11:31.470Z,30.60
2018-03-18T18:13:59.732Z,34.17
2018-03-18T18:16:27.925Z,30.25
2018-03-18T18:18:56.899Z,31.80
2018-03-18T18:21:24.826Z,31.05
2018-03-18T18:23:53.158Z,32.53
2018-03-18T18:26:21.009Z,35.72
2018-03-18T18:28:49.491Z,32.15
2018-03-18T18:31:17.972Z,33.47
2018-03-18T18:33:45.809Z,34.72
2018-03-18T18:36:14.175Z,29.25
2018-03-18T18:38:42.084Z,29.05
2018-03-18T18:41:10.872Z,30.23
2018-03-18T18:43:38.841Z,30.23
2018-03-18T18:46:06.707Z,34.83
2018-03-18T18:48:35.495Z,35.17
2018-03-18T18:51:03.771Z,28.40
2018-03-18T18:53:32.013Z,29.55
2018-03-18T18:55:59.914Z,33.80
2018-03-18T18:58:27.746Z,34.75
2018-03-18T19:00:56.568Z,37.20
2018-03-18T19:03:24.434Z,30.40
2018-03-18T19:05:52.510Z,29.33
2018-03-18T19:08:20.542Z,34.55
2018-03-18T19:10:48.563Z,29.05
2018-03-18T19:13:17.336Z,29.60
2018-03-18T19:15:46.223Z,32.05
2018-03-18T19:18:16.038Z,32.38
2018-03-18T19:20:44.649Z,34.05
2018-03-18T19:23:12.589Z,40.53
2018-03-18T19:25:40.967Z,38.13
2018-03-18T19:28:08.918Z,36.17
2018-03-18T19:30:37.615Z,28.52
2018-03-18T19:33:05.489Z,32.08
2018-03-18T19:35:33.354Z,29.90
2018-03-18T19:38:01.238Z,34.72
2018-03-18T19:40:29.292Z,35.83
2018-03-18T19:42:58.184Z,26.00
2018-03-18T19:45:25.975Z,34.45
2018-03-18T19:47:54.204Z,33.97
2018-03-18T19:50:22.606Z,37.28
2018-03-18T19:52:50.983Z,45.50
2018-03-18T19:55:20.224Z,36.85
2018-03-18T19:57:48.429Z,43.03
2018-03-18T20:00:16.321Z,67.60
2018-03-18T20:02:44.855Z,38.03
2018-03-18T20:05:12.692Z,61.40
2018-03-18T20:07:40.743Z,64.93
2018-03-18T20:10:10.039Z,48.60
2018-03-18T20:12:37.909Z,43.05
2018-03-18T20:15:06.556Z,63.35
2018-03-18T20:17:34.422Z,53.25
2018-03-18T20:20:02.631Z,60.30
2018-03-18T20:22:31.168Z,37.70
2018-03-18T20:24:59.913Z,50.28
2018-03-18T20:27:28.266Z,43.45
2018-03-18T20:29:56.230Z,32.70
2018-03-18T20:32:24.629Z,36.22
2018-03-18T20:34:53.453Z,52.05
2018-03-18T20:37:21.386Z,38.90
2018-03-18T20:39:50.069Z,49.70
2018-03-18T20:42:18.243Z,32.35
2018-03-18T20:44:46.416Z,45.67
2018-03-18T20:47:14.712Z,51.00
2018-03-18T20:49:42.863Z,42.10
2018-03-18T20:52:10.803Z,42.35
2018-03-18T20:54:39.916Z,42.25
2018-03-18T20:57:07.805Z,38.83
2018-03-18T20:59:35.979Z,68.07
2018-03-18T21:02:04.352Z,69.20
2018-03-18T21:04:32.308Z,45.33
2018-03-18T21:07:01.077Z,34.60
2018-03-18T21:09:29.076Z,51.58
2018-03-18T21:11:57.050Z,47.67
2018-03-18T21:14:25.526Z,39.60
2018-03-18T21:16:53.494Z,37.22
2018-03-18T21:19:21.360Z,34.08
2018-03-18T21:21:50.149Z,35.95
2018-03-18T21:24:18.019Z,66.68
2018-03-18T21:26:45.789Z,32.17
2018-03-18T21:29:13.668Z,36.33
2018-03-18T21:31:41.618Z,41.13
2018-03-18T21:34:10.526Z,27.60
2018-03-18T21:36:38.424Z,36.58
2018-03-18T21:39:06.364Z,34.10
2018-03-18T21:41:35.231Z,42.90
2018-03-18T21:44:03.897Z,35.65
2018-03-18T21:46:31.886Z,37.05
2018-03-18T21:48:59.832Z,44.63
2018-03-18T21:51:27.727Z,28.30
2018-03-18T21:53:55.664Z,39.53
2018-03-18T21:56:23.631Z,52.40
2018-03-18T21:58:51.699Z,33.42
2018-03-18T22:01:19.810Z,41.60
2018-03-18T22:03:47.917Z,36.35
2018-03-18T22:06:15.945Z,36.95
2018-03-18T22:08:44.189Z,45.12
2018-03-18T22:11:12.863Z,40.90
2018-03-18T22:13:40.774Z,36.13
2018-03-18T22:16:08.788Z,43.70
2018-03-18T22:18:36.814Z,31.05
2018-03-18T22:21:04.671Z,36.80
2018-03-18T22:23:32.888Z,33.83
2018-03-18T22:26:00.720Z,32.40
2018-03-18T22:28:28.587Z,32.42
2018-03-18T22:30:56.452Z,41.28
2018-03-18T22:33:24.320Z,39.00
2018-03-18T22:35:52.618Z,39.25
2018-03-18T22:38:20.565Z,29.17
2018-03-18T22:40:48.327Z,28.58
2018-03-18T22:43:16.081Z,38.65
2018-03-18T22:45:43.959Z,44.63
2018-03-18T22:48:11.928Z,43.90
2018-03-18T22:50:39.594Z,37.20
2018-03-18T22:53:07.245Z,28.85
2018-03-18T22:55:35.117Z,39.67
2018-03-18T22:58:02.991Z,28.45
2018-03-18T23:00:31.671Z,34.58
2018-03-18T23:02:59.639Z,41.00
2018-03-18T23:05:27.363Z,40.42
2018-03-18T23:07:55.136Z,32.47
2018-03-18T23:10:22.784Z,33.80
2018-03-18T23:12:50.687Z,25.30
2018-03-18T23:15:18.221Z,40.80
2018-03-18T23:17:45.859Z,44.90
2018-03-18T23:20:13.497Z,31.48
2018-03-18T23:22:41.105Z,32.95
2018-03-18T23:25:09.301Z,47.00
2018-03-18T23:27:37.177Z,36.33
2018-03-18T23:30:04.839Z,38.60
2018-03-18T23:32:32.606Z,37.67
2018-03-18T23:35:00.368Z,29.60
2018-03-18T23:37:28.543Z,30.70
2018-03-18T23:39:56.093Z,42.80
2018-03-18T23:42:23.649Z,36.42
2018-03-18T23:44:51.322Z,53.08
2018-03-18T23:47:18.906Z,35.80
2018-03-18T23:49:46.627Z,32.83
2018-03-18T23:52:14.306Z,33.15
2018-03-18T23:54:41.850Z,30.85
2018-03-18T23:57:09.440Z,31.55
2018-03-18T23:59:38.008Z,35.97
